createdAt,value
2022-10-23T00:00:26.126Z,100.00
2022-10-23T00:01:31.738Z,100.00
2022-10-23T00:02:34.506Z,100.00
2022-10-23T00:03:37.337Z,100.00
2022-10-23T00:04:40.021Z,100.00
2022-10-23T00:05:42.772Z,100.00
2022-10-23T00:06:46.257Z,100.00
2022-10-23T00:07:53.905Z,100.00
2022-10-23T00:08:56.732Z,100.00
2022-10-23T00:09:59.373Z,100.00
2022-10-23T00:11:05.957Z,100.00
2022-10-23T00:12:08.692Z,100.00
2022-10-23T00:13:11.457Z,100.00
2022-10-23T00:14:15.854Z,100.00
2022-10-23T00:15:22.387Z,100.00
2022-10-23T00:16:26.014Z,100.00
2022-10-23T00:17:28.732Z,100.00
2022-10-23T00:18:31.729Z,100.00
2022-10-23T00:19:34.417Z,100.00
2022-10-23T00:20:37.009Z,100.00
2022-10-23T00:21:39.819Z,100.00
2022-10-23T00:22:42.738Z,100.00
2022-10-23T00:23:46.295Z,100.00
2022-10-23T00:24:48.899Z,100.00
2022-10-23T00:25:51.510Z,100.00
2022-10-23T00:26:57.412Z,100.00
2022-10-23T00:28:00.289Z,100.00
2022-10-23T00:29:02.903Z,100.00
2022-10-23T00:30:06.651Z,100.00
2022-10-23T00:31:09.899Z,100.00
2022-10-23T00:32:15.893Z,100.00
2022-10-23T00:33:18.454Z,100.00
2022-10-23T00:34:21.249Z,100.00
2022-10-23T00:35:23.971Z,100.00
2022-10-23T00:36:26.933Z,100.00
2022-10-23T00:37:30.140Z,100.00
2022-10-23T00:38:32.852Z,100.00
2022-10-23T00:39:39.411Z,100.00
2022-10-23T00:40:44.230Z,100.00
2022-10-23T00:41:46.891Z,100.00
2022-10-23T00:42:49.605Z,100.00
2022-10-23T00:44:30.254Z,100.00
2022-10-23T00:45:34.278Z,100.00
2022-10-23T00:46:39.133Z,100.00
2022-10-23T00:47:42.572Z,100.00
2022-10-23T00:48:45.291Z,100.00
2022-10-23T00:49:47.888Z,100.00
2022-10-23T00:50:51.093Z,100.00
2022-10-23T00:51:59.500Z,100.00
2022-10-23T00:53:04.408Z,100.00
2022-10-23T00:54:24.667Z,100.00
2022-10-23T00:55:29.618Z,100.00
2022-10-23T00:56:34.105Z,100.00
2022-10-23T00:57:40.538Z,100.00
2022-10-23T00:58:43.154Z,100.00
2022-10-23T00:59:45.860Z,100.00
2022-10-23T01:00:55.107Z,100.00
2022-10-23T01:01:58.991Z,100.00
2022-10-23T01:03:01.723Z,100.00
2022-10-23T01:04:07.453Z,100.00
2022-10-23T01:05:10.652Z,100.00
2022-10-23T01:06:25.288Z,100.00
2022-10-23T01:07:36.493Z,100.00
2022-10-23T01:08:50.690Z,100.00
2022-10-23T01:10:11.613Z,100.00
2022-10-23T01:11:43.053Z,100.00
2022-10-23T01:12:51.891Z,100.00
2022-10-23T01:13:57.158Z,100.00
2022-10-23T01:15:32.093Z,100.00
2022-10-23T01:16:34.653Z,100.00
2022-10-23T01:17:44.977Z,100.00
2022-10-23T01:19:03.433Z,100.00
2022-10-23T01:20:31.954Z,100.00
2022-10-23T01:21:49.553Z,100.00
2022-10-23T01:23:10.265Z,100.00
2022-10-23T01:24:27.675Z,100.00
2022-10-23T01:26:12.825Z,100.00
2022-10-23T01:27:22.941Z,100.00
2022-10-23T01:28:36.522Z,100.00
2022-10-23T01:29:46.967Z,100.00
2022-10-23T01:30:50.105Z,100.00
2022-10-23T01:32:00.267Z,100.00
2022-10-23T01:33:10.155Z,100.00
2022-10-23T01:34:32.345Z,100.00
2022-10-23T01:36:08.813Z,100.00
2022-10-23T01:37:16.155Z,100.00
2022-10-23T01:38:20.945Z,100.00
2022-10-23T01:39:32.903Z,100.00
2022-10-23T01:41:03.115Z,100.00
2022-10-23T01:42:12.073Z,100.00
2022-10-23T01:43:25.592Z,100.00
2022-10-23T01:44:43.468Z,100.00
2022-10-23T01:45:55.261Z,100.00
2022-10-23T01:46:58.304Z,100.00
2022-10-23T01:48:03.071Z,100.00
2022-10-23T01:49:09.575Z,100.00
2022-10-23T01:50:15.127Z,100.00
2022-10-23T01:51:19.091Z,100.00
2022-10-23T01:52:22.360Z,100.00
2022-10-23T01:53:31.305Z,100.00
2022-10-23T01:54:38.868Z,100.00
2022-10-23T01:55:43.352Z,100.00
2022-10-23T01:56:51.538Z,100.00
2022-10-23T01:57:54.912Z,100.00
2022-10-23T01:59:01.976Z,100.00
2022-10-23T02:00:11.457Z,100.00
2022-10-23T02:01:16.654Z,100.00
2022-10-23T02:02:22.965Z,100.00
2022-10-23T02:03:29.313Z,100.00
2022-10-23T02:04:46.633Z,100.00
2022-10-23T02:05:49.316Z,100.00
2022-10-23T02:06:52.195Z,100.00
2022-10-23T02:07:55.464Z,100.00
2022-10-23T02:08:58.279Z,100.00
2022-10-23T02:10:01.082Z,100.00
2022-10-23T02:11:11.572Z,100.00
2022-10-23T02:13:45.064Z,100.00
2022-10-23T02:14:55.091Z,100.00
2022-10-23T02:16:11.291Z,100.00
2022-10-23T02:17:22.925Z,99.76
2022-10-23T02:18:36.291Z,99.54
2022-10-23T02:20:19.382Z,99.34
2022-10-23T02:21:38.100Z,98.60
2022-10-23T02:22:47.677Z,99.13
2022-10-23T02:24:03.418Z,99.07
2022-10-23T02:25:13.690Z,98.88
2022-10-23T02:26:18.457Z,98.59
2022-10-23T02:27:30.052Z,99.26
2022-10-23T02:28:57.947Z,100.00
2022-10-23T02:30:10.022Z,100.00
2022-10-23T02:31:16.171Z,100.00
2022-10-23T02:32:21.019Z,100.00
2022-10-23T02:33:26.330Z,100.00
2022-10-23T02:34:28.975Z,100.00
2022-10-23T02:35:31.843Z,100.00
2022-10-23T02:36:34.606Z,100.00
2022-10-23T02:37:37.455Z,100.00
2022-10-23T02:38:43.043Z,100.00
2022-10-23T02:39:45.955Z,100.00
2022-10-23T02:40:48.741Z,100.00
2022-10-23T02:42:17.497Z,100.00
2022-10-23T02:43:37.571Z,100.00
2022-10-23T02:45:01.057Z,99.95
2022-10-23T02:46:20.326Z,99.52
2022-10-23T02:48:01.812Z,98.48
2022-10-23T02:49:17.220Z,98.97
2022-10-23T02:50:44.317Z,99.76
2022-10-23T02:52:09.350Z,100.00
2022-10-23T02:53:31.506Z,98.78
2022-10-23T02:54:40.081Z,98.98
2022-10-23T02:56:09.065Z,100.00
2022-10-23T02:58:27.919Z,100.00
2022-10-23T02:59:54.349Z,99.79
2022-10-23T03:01:09.839Z,100.00
2022-10-23T03:02:25.581Z,100.00
2022-10-23T03:03:35.714Z,100.00
2022-10-23T03:04:40.966Z,100.00
2022-10-23T03:05:47.555Z,100.00
2022-10-23T03:06:51.846Z,100.00
2022-10-23T03:07:54.705Z,100.00
2022-10-23T03:09:05.650Z,100.00
2022-10-23T03:10:09.467Z,100.00
2022-10-23T03:11:12.057Z,100.00
2022-10-23T03:12:14.868Z,100.00
2022-10-23T03:13:17.619Z,100.00
2022-10-23T03:14:20.312Z,100.00
2022-10-23T03:15:23.014Z,100.00
2022-10-23T03:16:25.867Z,100.00
2022-10-23T03:17:28.585Z,100.00
2022-10-23T03:18:31.326Z,100.00
2022-10-23T03:19:34.091Z,100.00
2022-10-23T03:20:36.703Z,100.00
2022-10-23T03:21:39.353Z,100.00
2022-10-23T03:22:42.181Z,100.00
2022-10-23T03:23:45.120Z,100.00
2022-10-23T03:24:47.796Z,100.00
2022-10-23T03:25:50.716Z,100.00
2022-10-23T03:26:53.512Z,100.00
2022-10-23T03:27:56.310Z,100.00
2022-10-23T03:28:58.984Z,100.00
2022-10-23T03:30:01.996Z,100.00
2022-10-23T03:31:05.742Z,100.00
2022-10-23T03:32:09.163Z,100.00
2022-10-23T03:33:11.994Z,100.00
2022-10-23T03:34:15.231Z,100.00
2022-10-23T03:35:18.001Z,100.00
2022-10-23T03:36:20.649Z,100.00
2022-10-23T03:37:23.361Z,100.00
2022-10-23T03:38:26.183Z,100.00
2022-10-23T03:39:28.927Z,100.00
2022-10-23T03:40:31.788Z,100.00
2022-10-23T03:41:34.498Z,100.00
2022-10-23T03:42:37.159Z,100.00
2022-10-23T03:43:39.835Z,100.00
2022-10-23T03:44:42.396Z,100.00
2022-10-23T03:45:48.488Z,100.00
2022-10-23T03:46:51.339Z,100.00
2022-10-23T03:47:54.072Z,100.00
2022-10-23T03:48:58.468Z,100.00
2022-10-23T03:50:01.393Z,100.00
2022-10-23T03:51:05.527Z,100.00
2022-10-23T03:52:08.765Z,100.00
2022-10-23T03:53:11.410Z,100.00
2022-10-23T03:54:14.159Z,100.00
2022-10-23T03:55:17.384Z,100.00
2022-10-23T03:56:20.120Z,100.00
2022-10-23T03:57:22.754Z,100.00
2022-10-23T03:58:25.371Z,100.00
2022-10-23T03:59:28.585Z,100.00
2022-10-23T04:00:31.298Z,100.00
2022-10-23T04:01:34.074Z,100.00
2022-10-23T04:02:36.927Z,100.00
2022-10-23T04:03:39.629Z,100.00
2022-10-23T04:04:42.215Z,99.59
2022-10-23T04:05:45.052Z,99.02
2022-10-23T04:06:47.716Z,98.61
2022-10-23T04:07:51.062Z,97.88
2022-10-23T04:08:53.765Z,98.30
2022-10-23T04:09:56.334Z,99.45
2022-10-23T04:10:59.017Z,100.00
2022-10-23T04:12:01.748Z,99.93
2022-10-23T04:13:04.360Z,100.00
2022-10-23T04:14:07.117Z,100.00
2022-10-23T04:15:10.120Z,100.00
2022-10-23T04:16:12.735Z,100.00
2022-10-23T04:17:15.325Z,100.00
2022-10-23T04:18:18.604Z,100.00
2022-10-23T04:19:21.293Z,100.00
2022-10-23T04:20:23.917Z,100.00
2022-10-23T04:21:26.572Z,100.00
2022-10-23T04:22:29.311Z,100.00
2022-10-23T04:23:31.965Z,100.00
2022-10-23T04:24:34.651Z,100.00
2022-10-23T04:25:37.569Z,100.00
2022-10-23T04:26:40.310Z,100.00
2022-10-23T04:27:43.316Z,100.00
2022-10-23T04:28:46.193Z,100.00
2022-10-23T04:29:49.453Z,99.76
2022-10-23T04:30:52.327Z,99.87
2022-10-23T04:31:54.949Z,100.00
2022-10-23T04:32:57.556Z,100.00
2022-10-23T04:34:00.298Z,100.00
2022-10-23T04:35:03.088Z,100.00
2022-10-23T04:36:06.217Z,100.00
2022-10-23T04:37:08.965Z,100.00
2022-10-23T04:38:11.758Z,100.00
2022-10-23T04:39:14.897Z,100.00
2022-10-23T04:40:17.514Z,100.00
2022-10-23T04:41:20.241Z,100.00
2022-10-23T04:42:22.992Z,100.00
2022-10-23T04:43:25.763Z,100.00
2022-10-23T04:44:28.433Z,100.00
2022-10-23T04:45:31.106Z,100.00
2022-10-23T04:46:33.891Z,100.00
2022-10-23T04:47:36.742Z,100.00
2022-10-23T04:48:39.427Z,100.00
2022-10-23T04:49:41.984Z,100.00
2022-10-23T04:51:52.103Z,100.00
2022-10-23T04:52:56.073Z,100.00
2022-10-23T04:53:58.951Z,100.00
2022-10-23T04:55:01.558Z,100.00
2022-10-23T04:56:04.463Z,100.00
2022-10-23T04:57:07.210Z,100.00
2022-10-23T04:58:09.872Z,100.00
2022-10-23T04:59:12.485Z,100.00
2022-10-23T05:00:16.411Z,100.00
2022-10-23T05:01:19.137Z,100.00
2022-10-23T05:02:21.969Z,100.00
2022-10-23T05:03:26.215Z,100.00
2022-10-23T05:04:28.953Z,100.00
2022-10-23T05:05:31.628Z,100.00
2022-10-23T05:06:34.338Z,100.00
2022-10-23T05:07:39.266Z,100.00
2022-10-23T05:08:41.938Z,100.00
2022-10-23T05:09:44.577Z,100.00
2022-10-23T05:10:48.856Z,100.00
2022-10-23T05:11:51.476Z,100.00
2022-10-23T05:12:54.145Z,100.00
2022-10-23T05:13:56.816Z,100.00
2022-10-23T05:14:59.573Z,100.00
2022-10-23T05:16:02.335Z,100.00
2022-10-23T05:17:11.912Z,99.93
2022-10-23T05:18:23.682Z,100.00
2022-10-23T05:19:33.981Z,100.00
2022-10-23T05:20:40.051Z,100.00
2022-10-23T05:21:42.813Z,100.00
2022-10-23T05:22:47.454Z,100.00
2022-10-23T05:23:50.788Z,100.00
2022-10-23T05:24:54.768Z,100.00
2022-10-23T05:27:04.969Z,100.00
2022-10-23T05:28:07.818Z,100.00
2022-10-23T05:29:10.535Z,100.00
2022-10-23T05:30:14.051Z,100.00
2022-10-23T05:31:19.690Z,100.00
2022-10-23T05:32:24.377Z,100.00
2022-10-23T05:33:28.045Z,100.00
2022-10-23T05:34:31.910Z,100.00
2022-10-23T05:35:34.657Z,100.00
2022-10-23T05:36:38.047Z,100.00
2022-10-23T05:37:43.861Z,100.00
2022-10-23T05:38:47.124Z,100.00
2022-10-23T05:39:49.742Z,100.00
2022-10-23T05:40:53.205Z,100.00
2022-10-23T05:41:56.328Z,100.00
2022-10-23T05:42:58.956Z,100.00
2022-10-23T05:44:01.729Z,100.00
2022-10-23T05:45:04.957Z,100.00
2022-10-23T05:46:07.841Z,100.00
2022-10-23T05:47:10.462Z,100.00
2022-10-23T05:48:29.804Z,100.00
2022-10-23T05:49:36.921Z,100.00
2022-10-23T05:50:39.788Z,100.00
2022-10-23T05:51:42.594Z,100.00
2022-10-23T05:52:47.731Z,100.00
2022-10-23T05:53:50.896Z,100.00
2022-10-23T05:54:53.544Z,100.00
2022-10-23T05:55:56.385Z,100.00
2022-10-23T05:56:59.507Z,100.00
2022-10-23T05:58:03.265Z,100.00
2022-10-23T05:59:07.969Z,100.00
2022-10-23T06:00:11.565Z,100.00
2022-10-23T06:01:15.024Z,100.00
2022-10-23T06:02:17.848Z,100.00
2022-10-23T06:03:20.649Z,100.00
2022-10-23T06:04:23.405Z,100.00
2022-10-23T06:05:26.250Z,100.00
2022-10-23T06:06:28.964Z,100.00
2022-10-23T06:07:33.717Z,100.00
2022-10-23T06:08:38.405Z,100.00
2022-10-23T06:09:41.078Z,100.00
2022-10-23T06:10:43.775Z,100.00
2022-10-23T06:11:47.276Z,100.00
2022-10-23T06:12:49.867Z,100.00
2022-10-23T06:15:03.246Z,100.00
2022-10-23T06:16:14.472Z,100.00
2022-10-23T06:17:17.079Z,100.00
2022-10-23T06:18:19.730Z,100.00
2022-10-23T06:19:22.467Z,100.00
2022-10-23T06:20:28.886Z,100.00
2022-10-23T06:21:31.634Z,100.00
2022-10-23T06:22:34.205Z,100.00
2022-10-23T06:23:38.550Z,100.00
2022-10-23T06:24:41.340Z,99.86
2022-10-23T06:25:51.316Z,99.19
2022-10-23T06:26:53.925Z,98.52
2022-10-23T06:27:56.565Z,98.56
2022-10-23T06:28:59.538Z,98.63
2022-10-23T06:30:02.130Z,99.63
2022-10-23T06:31:06.232Z,99.78
2022-10-23T06:32:08.990Z,99.98
2022-10-23T06:33:11.647Z,100.00
2022-10-23T06:34:14.571Z,100.00
2022-10-23T06:35:18.800Z,100.00
2022-10-23T06:36:22.075Z,100.00
2022-10-23T06:37:28.655Z,100.00
2022-10-23T06:38:37.153Z,100.00
2022-10-23T06:39:40.693Z,100.00
2022-10-23T06:40:43.311Z,100.00
2022-10-23T06:41:46.202Z,99.81
2022-10-23T06:42:48.761Z,99.70
2022-10-23T06:43:52.024Z,99.57
2022-10-23T06:44:54.690Z,100.00
2022-10-23T06:46:01.024Z,99.88
2022-10-23T06:47:03.713Z,100.00
2022-10-23T06:48:06.542Z,100.00
2022-10-23T06:49:09.100Z,99.98
2022-10-23T06:50:14.590Z,99.48
2022-10-23T06:51:18.573Z,99.80
2022-10-23T06:52:45.305Z,100.00
2022-10-23T06:53:44.850Z,99.68
2022-10-23T06:54:47.465Z,99.16
2022-10-23T06:55:52.945Z,98.50
2022-10-23T06:56:59.625Z,98.42
2022-10-23T06:58:02.871Z,97.37
2022-10-23T06:59:07.858Z,99.20
2022-10-23T07:00:11.431Z,99.31
2022-10-23T07:01:14.937Z,99.78
2022-10-23T07:02:17.766Z,99.69
2022-10-23T07:03:20.388Z,100.00
2022-10-23T07:04:23.039Z,100.00
2022-10-23T07:05:25.708Z,100.00
2022-10-23T07:06:28.363Z,100.00
2022-10-23T07:07:31.559Z,100.00
2022-10-23T07:08:34.211Z,99.81
2022-10-23T07:09:36.937Z,97.19
2022-10-23T07:10:43.012Z,96.92
2022-10-23T07:11:45.590Z,96.44
2022-10-23T07:12:49.074Z,95.94
2022-10-23T07:13:51.682Z,96.97
2022-10-23T07:14:54.264Z,95.40
2022-10-23T07:15:57.004Z,94.64
2022-10-23T07:16:59.811Z,94.64
2022-10-23T07:18:02.506Z,94.55
2022-10-23T07:19:07.269Z,94.17
2022-10-23T07:20:09.998Z,95.66
2022-10-23T07:21:12.808Z,96.46
2022-10-23T07:22:16.110Z,94.18
2022-10-23T07:23:18.914Z,93.95
2022-10-23T07:24:21.572Z,94.83
2022-10-23T07:25:26.830Z,94.33
2022-10-23T07:26:29.871Z,93.78
2022-10-23T07:27:37.491Z,94.58
2022-10-23T07:28:41.608Z,94.79
2022-10-23T07:29:44.335Z,94.21
2022-10-23T07:30:59.137Z,93.28
2022-10-23T07:32:01.987Z,91.19
2022-10-23T07:33:04.601Z,91.91
2022-10-23T07:34:07.193Z,92.98
2022-10-23T07:35:12.279Z,93.45
2022-10-23T07:36:14.976Z,94.40
2022-10-23T07:37:17.635Z,94.19
2022-10-23T07:38:20.660Z,91.72
2022-10-23T07:39:23.722Z,91.96
2022-10-23T07:40:26.583Z,91.54
2022-10-23T07:41:29.195Z,89.87
2022-10-23T07:42:32.111Z,89.13
2022-10-23T07:43:35.482Z,87.37
2022-10-23T07:44:38.121Z,88.39
2022-10-23T07:45:40.796Z,89.12
2022-10-23T07:46:43.388Z,88.13
2022-10-23T07:47:51.576Z,87.14
2022-10-23T07:48:54.312Z,87.09
2022-10-23T07:49:56.882Z,86.29
2022-10-23T07:51:01.725Z,85.03
2022-10-23T07:52:07.315Z,85.23
2022-10-23T07:53:19.149Z,84.97
2022-10-23T07:54:22.195Z,84.78
2022-10-23T07:55:24.971Z,82.97
2022-10-23T07:56:31.758Z,82.92
2022-10-23T07:57:34.351Z,83.82
2022-10-23T07:58:37.182Z,84.32
2022-10-23T07:59:39.740Z,81.80
2022-10-23T08:00:42.427Z,79.81
2022-10-23T08:01:48.186Z,80.60
2022-10-23T08:02:51.425Z,79.78
2022-10-23T08:03:54.147Z,80.07
2022-10-23T08:04:56.706Z,79.02
2022-10-23T08:06:00.161Z,78.79
2022-10-23T08:07:02.791Z,79.27
2022-10-23T08:08:05.415Z,78.12
2022-10-23T08:09:08.123Z,78.43
2022-10-23T08:10:10.730Z,77.67
2022-10-23T08:11:15.405Z,76.74
2022-10-23T08:12:18.170Z,75.95
2022-10-23T08:13:21.637Z,76.91
2022-10-23T08:14:24.235Z,75.63
2022-10-23T08:15:26.755Z,73.57
2022-10-23T08:16:29.427Z,72.70
2022-10-23T08:17:32.075Z,71.66
2022-10-23T08:18:34.863Z,72.15
2022-10-23T08:19:37.565Z,72.03
2022-10-23T08:20:41.679Z,71.76
2022-10-23T08:21:44.135Z,72.11
2022-10-23T08:23:49.545Z,69.47
2022-10-23T08:24:52.253Z,70.33
2022-10-23T08:26:01.649Z,72.91
2022-10-23T08:27:04.199Z,72.39
2022-10-23T08:28:08.197Z,70.84
2022-10-23T08:29:11.019Z,70.01
2022-10-23T08:30:13.797Z,69.16
2022-10-23T08:31:18.513Z,69.81
2022-10-23T08:32:21.219Z,68.48
2022-10-23T08:33:24.384Z,67.94
2022-10-23T08:34:27.867Z,66.51
2022-10-23T08:35:30.597Z,65.96
2022-10-23T08:36:34.193Z,66.48
2022-10-23T08:37:37.031Z,67.37
2022-10-23T08:38:39.709Z,65.97
2022-10-23T08:39:42.410Z,64.85
2022-10-23T08:40:48.349Z,64.75
2022-10-23T08:41:52.900Z,62.67
2022-10-23T08:43:32.667Z,61.31
2022-10-23T08:44:52.250Z,61.55
2022-10-23T08:46:07.298Z,61.42
2022-10-23T08:47:18.988Z,61.84
2022-10-23T08:48:25.427Z,60.82
2022-10-23T08:49:49.771Z,60.54
2022-10-23T08:51:18.364Z,64.08
2022-10-23T08:52:25.095Z,63.49
2022-10-23T08:53:35.087Z,62.81
2022-10-23T08:54:53.343Z,62.40
2022-10-23T08:56:03.278Z,61.77
2022-10-23T08:57:14.046Z,60.61
2022-10-23T08:58:29.772Z,61.13
2022-10-23T08:59:40.624Z,61.38
2022-10-23T09:00:44.867Z,57.42
2022-10-23T09:01:54.666Z,57.71
2022-10-23T09:02:57.649Z,56.50
2022-10-23T09:04:00.975Z,58.71
2022-10-23T09:05:04.041Z,58.78
2022-10-23T09:06:35.283Z,58.68
2022-10-23T09:07:50.146Z,59.34
2022-10-23T09:09:14.303Z,57.39
2022-10-23T09:10:38.335Z,57.59
2022-10-23T09:11:59.180Z,57.66
2022-10-23T09:13:16.621Z,57.97
2022-10-23T09:14:33.575Z,53.90
2022-10-23T09:15:42.651Z,53.19
2022-10-23T09:17:01.184Z,55.56
2022-10-23T09:18:15.708Z,54.94
2022-10-23T09:19:24.939Z,52.71
2022-10-23T09:20:32.620Z,53.56
2022-10-23T09:21:36.499Z,53.17
2022-10-23T09:22:39.313Z,53.36
2022-10-23T09:23:42.191Z,55.01
2022-10-23T09:24:44.805Z,54.34
2022-10-23T09:25:48.787Z,54.70
2022-10-23T09:26:53.543Z,53.72
2022-10-23T09:28:02.758Z,53.55
2022-10-23T09:29:26.045Z,54.33
2022-10-23T09:30:38.510Z,55.87
2022-10-23T09:31:56.091Z,54.21
2022-10-23T09:33:14.376Z,54.98
2022-10-23T09:34:21.420Z,54.46
2022-10-23T09:35:27.276Z,54.46
2022-10-23T09:36:30.220Z,55.26
2022-10-23T09:37:36.075Z,56.14
2022-10-23T09:38:52.037Z,53.32
2022-10-23T09:40:15.752Z,54.64
2022-10-23T09:41:23.120Z,56.09
2022-10-23T09:42:26.568Z,55.25
2022-10-23T09:43:29.576Z,54.74
2022-10-23T09:44:34.273Z,55.36
2022-10-23T09:45:38.669Z,55.09
2022-10-23T09:48:12.550Z,55.84
2022-10-23T09:49:21.692Z,55.88
2022-10-23T09:50:24.457Z,55.46
2022-10-23T09:51:27.281Z,55.10
2022-10-23T09:52:37.572Z,52.74
2022-10-23T09:53:47.627Z,53.48
2022-10-23T09:55:02.324Z,52.46
2022-10-23T09:56:26.977Z,53.44
2022-10-23T09:57:38.442Z,52.91
2022-10-23T09:58:57.286Z,52.14
2022-10-23T10:00:15.375Z,54.17
2022-10-23T10:01:27.067Z,52.54
2022-10-23T10:02:32.697Z,53.52
2022-10-23T10:03:37.572Z,52.33
2022-10-23T10:04:41.849Z,49.86
2022-10-23T10:05:45.898Z,51.17
2022-10-23T10:06:57.541Z,49.94
2022-10-23T10:08:28.206Z,51.66
2022-10-23T10:09:30.841Z,51.05
2022-10-23T10:10:42.055Z,49.63
2022-10-23T10:11:50.163Z,50.22
2022-10-23T10:13:01.783Z,51.15
2022-10-23T10:14:07.159Z,51.40
2022-10-23T10:15:28.424Z,50.57
2022-10-23T10:16:48.166Z,48.08
2022-10-23T10:18:12.855Z,48.49
2022-10-23T10:19:48.573Z,48.06
2022-10-23T10:21:09.547Z,48.90
2022-10-23T10:22:31.398Z,49.01
2022-10-23T10:23:50.474Z,49.07
2022-10-23T10:25:17.312Z,48.39
2022-10-23T10:26:23.037Z,47.25
2022-10-23T10:27:46.284Z,48.10
2022-10-23T10:29:14.389Z,47.85
2022-10-23T10:30:22.869Z,48.60
2022-10-23T10:31:50.762Z,48.82
2022-10-23T10:33:02.222Z,47.79
2022-10-23T10:34:15.475Z,47.13
2022-10-23T10:35:35.241Z,47.57
2022-10-23T10:36:42.045Z,48.55
2022-10-23T10:37:51.173Z,48.77
2022-10-23T10:39:00.190Z,49.56
2022-10-23T10:40:23.160Z,50.33
2022-10-23T10:41:25.781Z,51.48
2022-10-23T10:42:50.088Z,47.56
2022-10-23T10:44:16.610Z,47.65
2022-10-23T10:45:49.446Z,47.78
2022-10-23T10:47:10.891Z,47.08
2022-10-23T10:48:32.707Z,48.21
2022-10-23T10:49:40.852Z,48.98
2022-10-23T10:50:54.630Z,46.39
2022-10-23T10:52:15.239Z,47.38
2022-10-23T10:53:36.164Z,49.36
2022-10-23T10:55:14.588Z,48.22
2022-10-23T10:56:20.827Z,47.17
2022-10-23T10:57:34.878Z,48.41
2022-10-23T10:58:46.091Z,48.62
2022-10-23T10:59:53.989Z,48.45
2022-10-23T11:01:00.785Z,46.12
2022-10-23T11:02:19.027Z,45.42
2022-10-23T11:03:42.621Z,46.31
2022-10-23T11:05:20.787Z,46.93
2022-10-23T11:06:27.601Z,45.35
2022-10-23T11:07:37.368Z,46.14
2022-10-23T11:08:56.148Z,45.92
2022-10-23T11:10:04.667Z,47.01
2022-10-23T11:11:18.332Z,47.12
2022-10-23T11:12:24.962Z,46.45
2022-10-23T11:13:33.930Z,45.60
2022-10-23T11:14:36.712Z,46.47
2022-10-23T11:15:43.869Z,46.49
2022-10-23T11:16:56.767Z,46.46
2022-10-23T11:18:03.893Z,45.01
2022-10-23T11:19:16.116Z,44.93
2022-10-23T11:20:47.598Z,44.06
2022-10-23T11:22:22.365Z,43.96
2022-10-23T11:24:07.174Z,43.88
2022-10-23T11:25:37.103Z,46.28
2022-10-23T11:26:52.312Z,47.07
2022-10-23T11:28:13.865Z,48.57
2022-10-23T11:29:44.114Z,46.99
2022-10-23T11:30:47.064Z,46.58
2022-10-23T11:32:27.336Z,45.21
2022-10-23T11:34:07.048Z,46.54
2022-10-23T11:35:34.559Z,46.41
2022-10-23T11:36:52.792Z,44.12
2022-10-23T11:38:07.954Z,45.19
2022-10-23T11:39:26.602Z,43.97
2022-10-23T11:40:29.768Z,45.83
2022-10-23T11:41:34.644Z,44.68
2022-10-23T11:42:40.515Z,45.00
2022-10-23T11:43:51.794Z,46.80
2022-10-23T11:44:55.478Z,45.19
2022-10-23T11:45:58.695Z,44.51
2022-10-23T11:47:23.482Z,44.91
2022-10-23T11:48:40.394Z,46.96
2022-10-23T11:49:43.234Z,46.09
2022-10-23T11:50:46.306Z,46.48
2022-10-23T11:52:00.567Z,47.39
2022-10-23T11:53:23.825Z,47.88
2022-10-23T11:54:32.786Z,49.17
2022-10-23T11:55:35.450Z,48.45
2022-10-23T11:56:51.051Z,45.77
2022-10-23T11:58:11.807Z,45.23
2022-10-23T11:59:33.052Z,48.54
2022-10-23T12:00:40.760Z,50.38
2022-10-23T12:01:45.723Z,49.01
2022-10-23T12:02:59.144Z,50.37
2022-10-23T12:04:13.757Z,47.90
2022-10-23T12:05:32.008Z,46.61
2022-10-23T12:06:44.597Z,47.63
2022-10-23T12:07:56.269Z,50.62
2022-10-23T12:09:25.283Z,51.22
2022-10-23T12:10:35.803Z,51.19
2022-10-23T12:11:47.776Z,52.81
2022-10-23T12:13:04.082Z,53.86
2022-10-23T12:14:31.129Z,54.97
2022-10-23T12:15:37.405Z,56.14
2022-10-23T12:16:40.355Z,54.78
2022-10-23T12:17:44.172Z,54.94
2022-10-23T12:18:50.279Z,55.48
2022-10-23T12:20:03.747Z,56.00
2022-10-23T12:21:18.818Z,56.15
2022-10-23T12:22:28.364Z,57.93
2022-10-23T12:23:43.174Z,59.46
2022-10-23T12:25:12.696Z,57.01
2022-10-23T12:26:28.111Z,56.83
2022-10-23T12:27:49.206Z,58.38
2022-10-23T12:29:19.923Z,57.97
2022-10-23T12:30:24.411Z,57.88
2022-10-23T12:31:33.084Z,59.07
2022-10-23T12:33:01.441Z,59.87
2022-10-23T12:34:20.801Z,59.05
2022-10-23T12:35:24.024Z,59.11
2022-10-23T12:36:45.144Z,59.19
2022-10-23T12:38:12.938Z,58.69
2022-10-23T12:39:30.907Z,58.25
2022-10-23T12:40:33.775Z,59.90
2022-10-23T12:41:39.372Z,57.73
2022-10-23T12:42:52.648Z,56.75
2022-10-23T12:44:05.949Z,57.30
2022-10-23T12:45:19.711Z,56.07
2022-10-23T12:46:31.474Z,57.63
2022-10-23T12:47:34.508Z,58.53
2022-10-23T12:48:49.662Z,59.11
2022-10-23T12:49:53.087Z,57.04
2022-10-23T12:50:56.677Z,57.38
2022-10-23T12:52:06.166Z,57.61
2022-10-23T12:53:18.179Z,58.26
2022-10-23T12:54:22.111Z,59.75
2022-10-23T12:55:28.839Z,59.12
2022-10-23T12:56:38.940Z,58.95
2022-10-23T12:57:42.473Z,59.03
2022-10-23T12:58:52.658Z,59.77
2022-10-23T12:59:59.278Z,60.70
2022-10-23T13:01:06.372Z,60.06
2022-10-23T13:02:25.119Z,60.33
2022-10-23T13:03:30.152Z,61.99
2022-10-23T13:04:35.654Z,62.65
2022-10-23T13:05:39.841Z,62.44
2022-10-23T13:06:44.001Z,62.86
2022-10-23T13:07:48.818Z,63.24
2022-10-23T13:08:52.699Z,62.65
2022-10-23T13:09:56.169Z,62.65
2022-10-23T13:10:59.493Z,63.80
2022-10-23T13:12:05.424Z,63.80
2022-10-23T13:13:10.641Z,63.65
2022-10-23T13:14:14.558Z,62.83
2022-10-23T13:15:20.824Z,63.54
2022-10-23T13:16:26.341Z,63.73
2022-10-23T13:17:55.798Z,64.14
2022-10-23T13:18:59.314Z,64.71
2022-10-23T13:20:34.857Z,64.35
2022-10-23T13:21:38.663Z,63.87
2022-10-23T13:22:42.263Z,63.41
2022-10-23T13:23:46.153Z,64.58
2022-10-23T13:24:52.407Z,65.58
2022-10-23T13:25:59.960Z,65.55
2022-10-23T13:27:03.282Z,63.64
2022-10-23T13:28:08.998Z,64.90
2022-10-23T13:29:22.076Z,64.13
2022-10-23T13:30:34.677Z,64.28
2022-10-23T13:31:37.800Z,63.65
2022-10-23T13:32:40.989Z,64.09
2022-10-23T13:33:47.476Z,64.11
2022-10-23T13:35:04.368Z,63.95
2022-10-23T13:36:15.256Z,63.86
2022-10-23T13:37:27.530Z,64.20
2022-10-23T13:38:37.631Z,64.47
2022-10-23T13:39:40.927Z,65.80
2022-10-23T13:40:43.950Z,65.54
2022-10-23T13:41:49.193Z,65.07
2022-10-23T13:42:55.618Z,64.77
2022-10-23T13:43:59.104Z,65.41
2022-10-23T13:45:02.524Z,65.45
2022-10-23T13:46:06.035Z,64.34
2022-10-23T13:47:14.775Z,64.85
2022-10-23T13:48:20.323Z,66.63
2022-10-23T13:49:26.610Z,66.27
2022-10-23T13:50:29.990Z,65.50
2022-10-23T13:51:42.596Z,66.67
2022-10-23T13:52:46.892Z,66.65
2022-10-23T13:53:50.488Z,66.58
2022-10-23T13:54:54.733Z,67.05
2022-10-23T13:55:58.829Z,66.92
2022-10-23T13:57:02.248Z,66.11
2022-10-23T13:58:05.693Z,67.06
2022-10-23T13:59:11.454Z,66.67
2022-10-23T14:00:15.507Z,66.74
2022-10-23T14:01:28.074Z,67.99
2022-10-23T14:02:31.494Z,68.16
2022-10-23T14:03:35.871Z,68.94
2022-10-23T14:04:39.424Z,68.64
2022-10-23T14:05:43.315Z,69.24
2022-10-23T14:06:46.970Z,69.02
2022-10-23T14:07:51.984Z,69.74
2022-10-23T14:08:55.536Z,70.79
2022-10-23T14:09:59.181Z,70.77
2022-10-23T14:11:03.195Z,72.30
2022-10-23T14:12:07.036Z,71.74
2022-10-23T14:13:10.004Z,72.20
2022-10-23T14:14:13.985Z,73.55
2022-10-23T14:15:17.175Z,75.19
2022-10-23T14:16:21.569Z,76.20
2022-10-23T14:17:24.987Z,76.28
2022-10-23T14:18:28.787Z,76.14
2022-10-23T14:19:34.123Z,75.94
2022-10-23T14:20:39.212Z,77.42
2022-10-23T14:21:42.375Z,78.73
2022-10-23T14:22:50.193Z,78.07
2022-10-23T14:23:54.495Z,77.90
2022-10-23T14:24:58.159Z,77.50
2022-10-23T14:26:03.125Z,78.25
2022-10-23T14:27:07.019Z,79.46
2022-10-23T14:28:10.098Z,78.72
2022-10-23T14:29:21.217Z,81.11
2022-10-23T14:30:27.593Z,81.07
2022-10-23T14:31:32.002Z,80.36